D/T METAR WX W/DIR W/SPE G/SPE TEMP DEWP
18/02/19 10:50 EGNM 181050Z 23012KT 180V270 9999 SCT020 08/04 Q1009 SW (230°) 13.8mph 8°C 4°C
18/02/19 09:50 EGNM 180950Z 23014KT 190V270 9999 FEW022 08/03 Q1008 SW (230°) 16.1mph 8°C 3°C
18/02/19 09:20 EGNM 180920Z 22012G22KT 180V270 9999 SCT020 08/04 Q1009 SW (220°) 13.8mph 25.3mph 8°C 4°C
18/02/19 08:50 EGNM 180850Z 22013KT 160V270 9999 -DZ FEW022 08/04 Q1009 -DZ SW (220°) 15.0mph 8°C 4°C
18/02/19 08:20 EGNM 180820Z 21011KT 170V260 9999 FEW022 08/03 Q1009 SSW (210°) 12.7mph 8°C 3°C
18/02/19 07:50 EGNM 180750Z 20009KT 170V240 9999 FEW022 07/04 Q1009 SSW (200°) 10.4mph 7°C 4°C
18/02/19 07:20 EGNM 180720Z 20010KT 150V240 9999 FEW022 07/03 Q1009 SSW (200°) 11.5mph 7°C 3°C
18/02/19 06:50 EGNM 180650Z 20010KT 170V240 9999 FEW024 07/04 Q1009 SSW (200°) 11.5mph 7°C 4°C
18/02/19 06:20 EGNM 180620Z 21007KT 160V260 9999 SCT020 07/04 Q1009 SSW (210°) 8.1mph 7°C 4°C
18/02/19 05:50 EGNM 180550Z 21007KT 150V260 9999 SCT020 07/04 Q1009 SSW (210°) 8.1mph 7°C 4°C
18/02/19 05:20 EGNM 180520Z 22007KT 160V290 9999 SCT020 07/04 Q1009 SW (220°) 8.1mph 7°C 4°C
18/02/19 04:50 EGNM 180450Z 22007KT 170V270 9999 SCT020 07/04 Q1009 SW (220°) 8.1mph 7°C 4°C
18/02/19 04:20 EGNM 180420Z 22006KT 180V290 9999 SCT020 07/04 Q1009 SW (220°) 6.9mph 7°C 4°C
18/02/19 03:50 EGNM 180350Z 22007KT 150V270 9999 BKN020 08/04 Q1010 SW (220°) 8.1mph 8°C 4°C
18/02/19 03:20 EGNM 180320Z 20007KT 140V270 9999 BKN020 07/04 Q1010 SSW (200°) 8.1mph 7°C 4°C
18/02/19 02:50 EGNM 180250Z 20006KT 150V240 9999 SCT020 07/04 Q1010 SSW (200°) 6.9mph 7°C 4°C
18/02/19 02:20 EGNM 180220Z 19004KT 140V270 9999 SCT025 07/04 Q1010 S (190°) 4.6mph 7°C 4°C
18/02/19 01:50 EGNM 180150Z 18005KT 140V220 9999 FEW025 BKN045 08/04 Q1010 S (180°) 5.8mph 8°C 4°C
18/02/19 01:20 EGNM 180120Z 19006KT 160V230 9999 BKN045 07/04 Q1010 S (190°) 6.9mph 7°C 4°C
18/02/19 00:50 EGNM 180050Z 19007G19KT 140V240 9999 FEW025 BKN045 08/04 Q1010 S (190°) 8.1mph 21.9mph 8°C 4°C
18/02/19 00:20 EGNM 180020Z 16006KT 100V220 9999 SCT025 BKN030 07/04 Q1010 SSE (160°) 6.9mph 7°C 4°C
17/02/19 23:50 EGNM 172350Z 14005KT 100V210 9999 BKN030 08/04 Q1010 SE (140°) 5.8mph 8°C 4°C
17/02/19 23:20 EGNM 172320Z 19006KT 150V280 9999 FEW030 BKN040 08/03 Q1010 S (190°) 6.9mph 8°C 3°C
17/02/19 22:50 EGNM 172250Z 17005KT 120V210 9999 SCT042 08/03 Q1010 S (170°) 5.8mph 8°C 3°C
17/02/19 22:20 EGNM 172220Z 17007KT 130V220 9999 SCT042 08/03 Q1010 S (170°) 8.1mph 8°C 3°C
17/02/19 21:50 EGNM 172150Z 20007KT 130V250 CAVOK 07/02 Q1010 SSW (200°) 8.1mph 7°C 2°C
17/02/19 21:20 EGNM 172120Z 20008KT 160V240 9999 FEW025 07/02 Q1010 SSW (200°) 9.2mph 7°C 2°C
17/02/19 20:50 EGNM 172050Z 22007KT 190V270 CAVOK 08/02 Q1010 SW (220°) 8.1mph 8°C 2°C
17/02/19 20:20 EGNM 172020Z 20007KT 160V270 CAVOK 08/02 Q1010 SSW (200°) 8.1mph 8°C 2°C
17/02/19 19:50 EGNM 171950Z 21006KT 140V270 9999 FEW018 08/03 Q1010 SSW (210°) 6.9mph 8°C 3°C
17/02/19 19:20 EGNM 171920Z 22008KT 180V270 9999 FEW018 09/03 Q1010 SW (220°) 9.2mph 9°C 3°C
17/02/19 18:50 EGNM 171850Z 21009KT 180V240 9999 FEW015 09/04 Q1009 SSW (210°) 10.4mph 9°C 4°C
17/02/19 18:20 EGNM 171820Z 23007KT 190V270 9999 FEW015 09/04 Q1009 SW (230°) 8.1mph 9°C 4°C
17/02/19 17:50 EGNM 171750Z 22011KT 180V250 9999 FEW014 10/04 Q1009 SW (220°) 12.7mph 10°C 4°C
17/02/19 17:20 EGNM 171720Z 22010KT 180V250 9999 FEW014 10/04 Q1009 SW (220°) 11.5mph 10°C 4°C
17/02/19 16:50 EGNM 171650Z 21008KT 170V240 9999 FEW022 SCT034 10/05 Q1009 SSW (210°) 9.2mph 10°C 5°C
17/02/19 16:20 EGNM 171620Z 21010KT 170V250 9999 FEW022 SCT034 11/06 Q1009 SSW (210°) 11.5mph 11°C 6°C
17/02/19 15:50 EGNM 171550Z 21011KT 180V250 9999 FEW022 SCT034 11/06 Q1009 SSW (210°) 12.7mph 11°C 6°C
17/02/19 15:20 EGNM 171520Z 20010KT 160V240 9999 FEW018 SCT025 11/07 Q1009 SSW (200°) 11.5mph 11°C 7°C
17/02/19 14:50 EGNM 171450Z 21010KT 180V260 9999 SCT025 11/06 Q1008 SSW (210°) 11.5mph 11°C 6°C
17/02/19 14:20 EGNM 171420Z 21011KT 170V260 9999 SCT025 11/06 Q1008 SSW (210°) 12.7mph 11°C 6°C
17/02/19 13:50 EGNM 171350Z 22011KT 180V260 9999 FEW022 12/06 Q1008 SW (220°) 12.7mph 12°C 6°C
17/02/19 13:20 EGNM 171320Z 23012KT 190V280 9999 FEW022 12/06 Q1008 SW (230°) 13.8mph 12°C 6°C
17/02/19 12:50 EGNM 171250Z 23012KT 190V280 9999 SCT025 11/06 Q1009 SW (230°) 13.8mph 11°C 6°C
17/02/19 12:20 EGNM 171220Z 23010G20KT 180V280 9999 SCT030 11/05 Q1009 SW (230°) 11.5mph 23.0mph 11°C 5°C
17/02/19 11:50 EGNM 171150Z 22010KT 180V280 CAVOK 11/05 Q1009 SW (220°) 11.5mph 11°C 5°C
17/02/19 11:20 EGNM 171120Z 22008KT 160V280 CAVOK 11/05 Q1009 SW (220°) 9.2mph 11°C 5°C
17/02/19 10:50 EGNM 171050Z 17006KT 140V210 CAVOK 09/05 Q1009 S (170°) 6.9mph 9°C 5°C
17/02/19 10:20 EGNM 171020Z 16007KT 140V200 9000 NSC 08/06 Q1009 SSE (160°) 8.1mph 8°C 6°C
17/02/19 09:50 EGNM 170950Z 16009KT 9000 NSC 08/06 Q1009 SSE (160°) 10.4mph 8°C 6°C
17/02/19 09:20 EGNM 170920Z 15010KT 6000 SCT004 07/06 Q1009 SSE (150°) 11.5mph 7°C 6°C
17/02/19 08:50 EGNM 170850Z 15009KT 5000 SCT004 07/06 Q1009 SSE (150°) 10.4mph 7°C 6°C
17/02/19 08:20 EGNM 170820Z 15009KT 5000 SCT005 06/06 Q1010 SSE (150°) 10.4mph 6°C 6°C
17/02/19 07:50 EGNM 170750Z 14010KT 6000 FEW010 06/06 Q1010 SE (140°) 11.5mph 6°C 6°C
17/02/19 07:20 EGNM 170720Z 14009KT 8000 NSC 06/05 Q1010 SE (140°) 10.4mph 6°C 5°C
17/02/19 06:50 EGNM 170650Z 15009KT CAVOK 06/05 Q1010 SSE (150°) 10.4mph 6°C 5°C
17/02/19 06:20 EGNM 170620Z 14010KT CAVOK 07/05 Q1011 SE (140°) 11.5mph 7°C 5°C
17/02/19 05:50 EGNM 170550Z 15007KT CAVOK 06/05 Q1011 SSE (150°) 8.1mph 6°C 5°C
17/02/19 05:20 EGNM 170520Z 16008KT CAVOK 06/05 Q1011 SSE (160°) 9.2mph 6°C 5°C
17/02/19 04:50 EGNM 170450Z 16007KT CAVOK 07/06 Q1012 SSE (160°) 8.1mph 7°C 6°C
17/02/19 04:20 EGNM 170420Z 17005KT CAVOK 07/05 Q1012 S (170°) 5.8mph 7°C 5°C
17/02/19 03:50 EGNM 170350Z 17005KT CAVOK 07/05 Q1012 S (170°) 5.8mph 7°C 5°C
17/02/19 03:20 EGNM 170320Z 17007KT CAVOK 07/05 Q1013 S (170°) 8.1mph 7°C 5°C
17/02/19 02:50 EGNM 170250Z 17006KT CAVOK 07/05 Q1013 S (170°) 6.9mph 7°C 5°C
17/02/19 02:20 EGNM 170220Z 16005KT CAVOK 07/05 Q1013 SSE (160°) 5.8mph 7°C 5°C
17/02/19 01:50 EGNM 170150Z 12005KT CAVOK 07/05 Q1014 ESE (120°) 5.8mph 7°C 5°C
17/02/19 01:20 EGNM 170120Z 13004KT 9999 FEW025 08/06 Q1014 SE (130°) 4.6mph 8°C 6°C
17/02/19 00:50 EGNM 170050Z VRB03KT 9999 SCT022 09/07 Q1014 N (0°) 3.5mph 9°C 7°C
16/02/19 23:50 EGNM 162350Z 20010KT 160V250 9999 BKN022 11/07 Q1015 SSW (200°) 11.5mph 11°C 7°C
16/02/19 23:20 EGNM 162320Z 20012KT 170V230 9999 BKN022 11/08 Q1015 SSW (200°) 13.8mph 11°C 8°C
16/02/19 22:50 EGNM 162250Z 19007KT 150V240 9999 FEW020 BKN031 11/08 Q1015 S (190°) 8.1mph 11°C 8°C
16/02/19 22:20 EGNM 162220Z 20009KT 160V230 9999 BKN031 11/08 Q1015 SSW (200°) 10.4mph 11°C 8°C
16/02/19 21:50 EGNM 162150Z 20008KT 150V230 9999 SCT020 BKN036 11/08 Q1016 SSW (200°) 9.2mph 11°C 8°C
16/02/19 21:20 EGNM 162120Z 19007KT 150V230 9999 BKN019 11/08 Q1016 S (190°) 8.1mph 11°C 8°C
16/02/19 20:50 EGNM 162050Z 21008KT 170V260 9999 BKN019 11/08 Q1016 SSW (210°) 9.2mph 11°C 8°C
16/02/19 19:50 EGNM 161950Z 20010KT 160V230 9999 BKN019 11/08 Q1016 SSW (200°) 11.5mph 11°C 8°C
16/02/19 19:20 EGNM 161920Z 18006KT 150V220 9999 BKN025 10/07 Q1016 S (180°) 6.9mph 10°C 7°C
16/02/19 18:50 EGNM 161850Z 18006KT 9999 BKN025 10/06 Q1016 S (180°) 6.9mph 10°C 6°C
16/02/19 18:20 EGNM 161820Z 19006KT 9999 BKN025 10/06 Q1016 S (190°) 6.9mph 10°C 6°C
16/02/19 17:50 EGNM 161750Z 21006KT 160V250 9999 BKN025 11/06 Q1016 SSW (210°) 6.9mph 11°C 6°C
16/02/19 17:20 EGNM 161720Z 20006KT 160V240 9999 SCT030 11/05 Q1016 SSW (200°) 6.9mph 11°C 5°C
16/02/19 16:50 EGNM 161650Z 22009KT 180V270 9999 SCT030 11/05 Q1016 SW (220°) 10.4mph 11°C 5°C
16/02/19 16:20 EGNM 161620Z 22011G21KT 190V260 9999 FEW032 11/05 Q1016 SW (220°) 12.7mph 24.2mph 11°C 5°C
16/02/19 15:20 EGNM 161520Z 20012KT 180V240 9999 FEW032 11/04 Q1017 SSW (200°) 13.8mph 11°C 4°C
16/02/19 14:50 EGNM 161450Z 22014KT 190V250 9999 FEW032 12/04 Q1017 SW (220°) 16.1mph 12°C 4°C
16/02/19 14:20 EGNM 161420Z 22013KT 190V270 9999 FEW032 11/04 Q1017 SW (220°) 15.0mph 11°C 4°C
16/02/19 13:50 EGNM 161350Z 21014KT 190V250 9999 FEW032 11/04 Q1017 SSW (210°) 16.1mph 11°C 4°C
16/02/19 13:20 EGNM 161320Z 23010KT 200V270 9999 FEW032 11/04 Q1018 SW (230°) 11.5mph 11°C 4°C
16/02/19 12:50 EGNM 161250Z 23011KT 190V270 9999 SCT032 11/04 Q1018 SW (230°) 12.7mph 11°C 4°C
16/02/19 11:50 EGNM 161150Z 23012KT 200V270 9999 FEW016 SCT037 10/04 Q1018 SW (230°) 13.8mph 10°C 4°C
16/02/19 10:50 EGNM 161050Z 22008KT 170V270 9999 FEW016 SCT037 10/05 Q1018 SW (220°) 9.2mph 10°C 5°C
16/02/19 10:20 EGNM 161020Z 21011KT 180V250 9999 FEW016 SCT037 10/05 Q1018 SSW (210°) 12.7mph 10°C 5°C
16/02/19 09:50 EGNM 160950Z 22007KT 180V250 9999 FEW015 SCT035 09/05 Q1018 SW (220°) 8.1mph 9°C 5°C
16/02/19 09:20 EGNM 160920Z 22008KT 190V250 9999 FEW015 SCT035 09/05 Q1018 SW (220°) 9.2mph 9°C 5°C
16/02/19 08:50 EGNM 160850Z 20005KT 160V250 9999 FEW015 SCT035 08/05 Q1018 SSW (200°) 5.8mph 8°C 5°C
16/02/19 08:20 EGNM 160820Z VRB03KT 9999 SCT025 08/05 Q1018 N (0°) 3.5mph 8°C 5°C
16/02/19 07:50 EGNM 160750Z VRB03KT 9999 SCT025 08/05 Q1018 N (0°) 3.5mph 8°C 5°C
16/02/19 07:20 EGNM 160720Z VRB03KT 9999 BKN030 08/05 Q1017 N (0°) 3.5mph 8°C 5°C
16/02/19 06:50 EGNM 160650Z 15004KT 120V210 9999 BKN030 08/05 Q1017 SSE (150°) 4.6mph 8°C 5°C
16/02/19 06:20 EGNM 160620Z 23005KT 190V270 9999 BKN030 08/04 Q1017 SW (230°) 5.8mph 8°C 4°C
16/02/19 05:50 EGNM 160550Z 23006KT 180V290 9999 SCT029 08/04 Q1017 SW (230°) 6.9mph 8°C 4°C
16/02/19 05:20 EGNM 160520Z VRB02KT 9999 SCT020 08/05 Q1017 N (0°) 2.3mph 8°C 5°C
16/02/19 04:20 EGNM 160420Z 26006KT 200V320 9999 FEW023 09/07 Q1016 W (260°) 6.9mph 9°C 7°C
16/02/19 03:50 EGNM 160350Z 24010KT 200V270 9999 BKN026 09/06 Q1016 WSW (240°) 11.5mph 9°C 6°C
16/02/19 03:20 EGNM 160320Z 23014KT 200V270 9999 BKN026 09/07 Q1016 SW (230°) 16.1mph 9°C 7°C
16/02/19 02:50 EGNM 160250Z 23013KT 200V270 9999 SCT015 BKN024 10/07 Q1015 SW (230°) 15.0mph 10°C 7°C
16/02/19 02:20 EGNM 160220Z 21015KT 9999 SCT017 BKN022 10/06 Q1016 SSW (210°) 17.3mph 10°C 6°C
16/02/19 01:50 EGNM 160150Z 22014KT 190V250 9999 SCT017 BKN027 10/06 Q1016 SW (220°) 16.1mph 10°C 6°C
16/02/19 01:20 EGNM 160120Z 22013KT 9999 BKN030 11/06 Q1016 SW (220°) 15.0mph 11°C 6°C
16/02/19 00:50 EGNM 160050Z 21013KT 9999 SCT028 11/06 Q1016 SSW (210°) 15.0mph 11°C 6°C
16/02/19 00:20 EGNM 160020Z 22011KT 190V250 9999 SCT028 10/05 Q1017 SW (220°) 12.7mph 10°C 5°C
15/02/19 23:50 EGNM 152350Z 22016KT 190V260 CAVOK 10/04 Q1017 SW (220°) 18.4mph 10°C 4°C
15/02/19 23:20 EGNM 152320Z 24015KT CAVOK 11/03 Q1017 WSW (240°) 17.3mph 11°C 3°C
15/02/19 22:50 EGNM 152250Z 24011KT 190V290 CAVOK 11/03 Q1017 WSW (240°) 12.7mph 11°C 3°C
15/02/19 22:20 EGNM 152220Z 20005KT 090V270 CAVOK 09/03 Q1018 SSW (200°) 5.8mph 9°C 3°C
15/02/19 21:50 EGNM 152150Z 16003KT CAVOK 08/02 Q1018 SSE (160°) 3.5mph 8°C 2°C
15/02/19 21:20 EGNM 152120Z 19005KT 150V220 CAVOK 09/02 Q1018 S (190°) 5.8mph 9°C 2°C
15/02/19 20:50 EGNM 152050Z 22007KT 180V250 CAVOK 09/02 Q1018 SW (220°) 8.1mph 9°C 2°C
15/02/19 20:20 EGNM 152020Z 22007KT 180V250 CAVOK 09/02 Q1019 SW (220°) 8.1mph 9°C 2°C
15/02/19 19:50 EGNM 151950Z VRB03KT CAVOK 08/02 Q1019 N (0°) 3.5mph 8°C 2°C
15/02/19 19:20 EGNM 151920Z VRB03KT CAVOK 10/02 Q1019 N (0°) 3.5mph 10°C 2°C
15/02/19 18:50 EGNM 151850Z 21006KT CAVOK 10/02 Q1019 SSW (210°) 6.9mph 10°C 2°C
15/02/19 18:20 EGNM 151820Z 21004KT 160V240 CAVOK 11/02 Q1019 SSW (210°) 4.6mph 11°C 2°C
15/02/19 17:50 EGNM 151750Z 22006KT CAVOK 10/02 Q1020 SW (220°) 6.9mph 10°C 2°C
15/02/19 17:20 EGNM 151720Z 22006KT 190V260 CAVOK 10/03 Q1020 SW (220°) 6.9mph 10°C 3°C
15/02/19 16:50 EGNM 151650Z 20007KT 160V260 CAVOK 12/02 Q1020 SSW (200°) 8.1mph 12°C 2°C
15/02/19 16:20 EGNM 151620Z 21008KT CAVOK 12/03 Q1020 SSW (210°) 9.2mph 12°C 3°C
15/02/19 15:50 EGNM 151550Z 21010KT 190V250 CAVOK 12/02 Q1020 SSW (210°) 11.5mph 12°C 2°C
15/02/19 15:20 EGNM 151520Z 20009KT CAVOK 13/03 Q1020 SSW (200°) 10.4mph 13°C 3°C
15/02/19 14:50 EGNM 151450Z 20008KT 160V240 CAVOK 13/02 Q1021 SSW (200°) 9.2mph 13°C 2°C
15/02/19 13:50 EGNM 151350Z 22010KT 180V270 CAVOK 13/02 Q1021 SW (220°) 11.5mph 13°C 2°C
15/02/19 13:20 EGNM 151320Z 23012KT 200V270 CAVOK 14/02 Q1021 SW (230°) 13.8mph 14°C 2°C
15/02/19 12:50 EGNM 151250Z 22009KT 180V270 CAVOK 13/02 Q1022 SW (220°) 10.4mph 13°C 2°C
15/02/19 12:20 EGNM 151220Z 17005KT 150V220 CAVOK 11/03 Q1022 S (170°) 5.8mph 11°C 3°C
15/02/19 11:50 EGNM 151150Z 18004KT 150V230 CAVOK 10/02 Q1023 S (180°) 4.6mph 10°C 2°C
15/02/19 11:20 EGNM 151120Z VRB03KT CAVOK 10/02 Q1023 N (0°) 3.5mph 10°C 2°C
15/02/19 10:50 EGNM 151050Z 24004KT 200V290 CAVOK 09/02 Q1023 WSW (240°) 4.6mph 9°C 2°C
15/02/19 10:20 EGNM 151020Z 23005KT 200V270 CAVOK 08/02 Q1023 SW (230°) 5.8mph 8°C 2°C
15/02/19 09:50 EGNM 150950Z 23006KT 190V270 CAVOK 08/01 Q1023 SW (230°) 6.9mph 8°C 1°C
15/02/19 09:20 EGNM 150920Z 22006KT 190V270 CAVOK 07/02 Q1024 SW (220°) 6.9mph 7°C 2°C
15/02/19 08:50 EGNM 150850Z 24006KT 200V270 CAVOK 06/02 Q1024 WSW (240°) 6.9mph 6°C 2°C
15/02/19 08:20 EGNM 150820Z 22005KT 180V260 CAVOK 06/02 Q1024 SW (220°) 5.8mph 6°C 2°C
15/02/19 07:50 EGNM 150750Z 23006KT 180V270 CAVOK 05/01 Q1024 SW (230°) 6.9mph 5°C 1°C
15/02/19 07:20 EGNM 150720Z 22006KT 180V270 CAVOK 05/01 Q1024 SW (220°) 6.9mph 5°C 1°C